Puyallup, WA

9:57 PM PST on November 18, 2017 (GMT -0800)
Pierce County - Thun Field

Weather History for KPLU - February, 2012

Change the Weather History Date:

Wednesday, February 22, 2012

  Actual Average (KTCM) Record (KTCM)
Temperature  
Mean Temperature 44 °F -  
Max Temperature 48 °F 48 °F 66 °F (1966)
Min Temperature 39 °F 30 °F 21 °F (2005)
Degree Days  
Heating Degree Days 22    
Moisture  
Dew Point 41 °F    
Average Humidity 84    
Maximum Humidity 100    
Minimum Humidity 66    
Precipitation  
Precipitation 0.11 in - - ()
Sea Level Pressure  
Sea Level Pressure 30.14 in    
Wind  
Wind Speed 12 mph (WSW)    
Max Wind Speed 22 mph    
Max Gust Speed 30 mph    
Visibility 9 miles    
Events Rain    
Averages and records for this station are not official NWS values.
T = Trace of Precipitation, MM = Missing Value Source: NWS Daily Summary

Daily Weather History Graph

Daily Weather History Graph

Search for Another Location

Airport or City:

Trip Planner

Search our weather history database for the weather conditions in past years. The results will help you decide how hot, cold, wet, or windy it might be!

Date:

Astronomy

Feb. 22, 2012 Rise Set
Actual Time 7:02 AM PST 5:43 PM PST
Civil Twilight 6:31 AM PST 6:14 PM PST
Nautical Twilight 5:56 AM PST 6:49 PM PST
Astronomical Twilight 5:20 AM PST 7:25 PM PST
Moon 6:56 AM PST (2/22) 7:04 PM PST (2/22)
Length of Visible Light 11h 42m
Length of Day
10h 40m
New Moon, 1% of the Moon is Illuminated
Feb 22
New Moon
Feb 29
First Quarter
Mar 8
Full
Mar 14
Last Quarter
Mar 22
New

Hourly Weather History & Observations

Time (PST) Temp. Windchill Dew Point Humidity Pressure Visibility Wind Dir Wind Speed Gust Speed Precip Events Conditions
12:15 AM 48.2 °F - 48.2 °F 100% 30.08 in 4.0 mi SW 10.4 mph 16.1 mph 0.01 in   Heavy Drizzle
12:55 AM 48.2 °F - 48.2 °F 100% 30.05 in 8.0 mi SW 13.8 mph 21.9 mph 0.03 in   Drizzle
1:35 AM 48.2 °F - 48.2 °F 100% 30.04 in 10.0 mi SW 10.4 mph 20.7 mph 0.01 in   Light Drizzle
1:55 AM 48.2 °F - 48.2 °F 100% 30.05 in 9.0 mi WSW 11.5 mph 17.3 mph 0.02 in   Drizzle
2:15 AM 48.2 °F - 48.2 °F 100% 30.04 in 10.0 mi SW 13.8 mph 21.9 mph 0.01 in Rain Light Rain
2:35 AM 48.2 °F - 48.2 °F 100% 30.02 in 10.0 mi SW 12.7 mph 23.0 mph 0.02 in   Light Drizzle
2:55 AM 48.2 °F - 48.2 °F 100% 30.02 in 10.0 mi SW 9.2 mph 20.7 mph 0.03 in   Light Drizzle
3:15 AM 48.2 °F - 48.2 °F 100% 30.01 in 10.0 mi SW 9.2 mph 19.6 mph N/A Rain Light Rain
3:35 AM 48.2 °F - 48.2 °F 100% 30.00 in 10.0 mi WSW 12.7 mph 27.6 mph 0.01 in   Light Drizzle
3:55 AM 48.2 °F - 48.2 °F 100% 30.01 in 10.0 mi WSW 9.2 mph 19.6 mph 0.01 in   Light Drizzle
4:15 AM 48.2 °F - 48.2 °F 100% 30.00 in 7.0 mi WSW 13.8 mph 23.0 mph N/A   Mostly Cloudy
4:55 AM 48.2 °F - 48.2 °F 100% 29.99 in 2.5 mi SW 11.5 mph 24.2 mph 0.01 in   Light Drizzle
5:15 AM 48.2 °F - 48.2 °F 100% 29.99 in 4.0 mi WSW 13.8 mph 19.6 mph N/A   Mostly Cloudy
5:35 AM 48.2 °F - 48.2 °F 100% 30.01 in 5.0 mi WSW 9.2 mph 17.3 mph N/A   Mostly Cloudy
5:55 AM 48.2 °F - 48.2 °F 100% 30.01 in 4.0 mi WSW 10.4 mph 18.4 mph 0.01 in   Mostly Cloudy
6:15 AM 48.2 °F - 48.2 °F 100% 30.02 in 8.0 mi WSW 8.1 mph - N/A   Mostly Cloudy
6:35 AM 48.2 °F - 48.2 °F 100% 30.03 in 10.0 mi WSW 10.4 mph - N/A   Scattered Clouds
6:55 AM 48.2 °F - 48.2 °F 100% 30.03 in 10.0 mi WSW 10.4 mph 16.1 mph N/A   Scattered Clouds
7:15 AM 46.4 °F 41.5 °F 46.4 °F 100% 30.03 in 10.0 mi WSW 10.4 mph - N/A   Mostly Cloudy
7:35 AM 46.4 °F 41.5 °F 46.4 °F 100% 30.04 in 10.0 mi WSW 10.4 mph 24.2 mph N/A   Scattered Clouds
7:55 AM 44.6 °F 39.2 °F 39.2 °F 81% 30.06 in 10.0 mi West 10.4 mph 20.7 mph N/A   Clear
8:15 AM 44.6 °F 37.8 °F 39.2 °F 81% 30.08 in 10.0 mi WSW 15.0 mph 20.7 mph N/A   Clear
8:55 AM 44.6 °F 37.8 °F 37.4 °F 76% 30.11 in 10.0 mi WSW 15.0 mph 26.5 mph N/A   Clear
9:15 AM 44.6 °F 37.4 °F 39.2 °F 81% 30.13 in 10.0 mi WSW 16.1 mph 25.3 mph N/A   Clear
9:35 AM 46.4 °F 40.4 °F 39.2 °F 76% 30.14 in 10.0 mi SW 13.8 mph 20.7 mph N/A   Clear
9:55 AM 46.4 °F 39.0 °F 39.2 °F 76% 30.16 in 10.0 mi West 19.6 mph 27.6 mph N/A   Partly Cloudy
10:15 AM 44.6 °F 38.4 °F 39.2 °F 81% 30.17 in 10.0 mi WSW 12.7 mph 21.9 mph N/A   Partly Cloudy
10:35 AM 46.4 °F 39.8 °F 39.2 °F 76% 30.17 in 10.0 mi WSW 16.1 mph 21.9 mph N/A   Clear
10:55 AM 46.4 °F 39.8 °F 39.2 °F 76% 30.17 in 10.0 mi WSW 16.1 mph 26.5 mph N/A   Partly Cloudy
11:15 AM 46.4 °F 39.8 °F 37.4 °F 71% 30.15 in 10.0 mi WSW 16.1 mph 24.2 mph N/A   Clear
11:35 AM 48.2 °F - 37.4 °F 66% 30.17 in 10.0 mi WSW 17.3 mph 28.8 mph N/A   Clear
11:55 AM 46.4 °F 41.1 °F 39.2 °F 76% 30.17 in 9.0 mi SW 11.5 mph 24.2 mph N/A   Partly Cloudy
12:15 PM 46.4 °F 40.4 °F 37.4 °F 71% 30.17 in 10.0 mi SW 13.8 mph 20.7 mph N/A   Clear
12:35 PM 48.2 °F - 39.2 °F 71% 30.16 in 10.0 mi SW 9.2 mph 25.3 mph N/A   Partly Cloudy
12:55 PM 48.2 °F - 37.4 °F 66% 30.17 in 10.0 mi WSW 10.4 mph 25.3 mph N/A   Scattered Clouds
1:15 PM 46.4 °F 38.5 °F 37.4 °F 71% 30.18 in 9.0 mi West 21.9 mph 29.9 mph N/A   Drizzle
1:35 PM 46.4 °F 41.5 °F 39.2 °F 76% 30.19 in 10.0 mi West 10.4 mph 21.9 mph N/A   Partly Cloudy
1:55 PM 46.4 °F 39.8 °F 37.4 °F 71% 30.19 in 10.0 mi West 16.1 mph 21.9 mph N/A   Partly Cloudy
2:35 PM 46.4 °F 41.1 °F 35.6 °F 66% 30.19 in 10.0 mi West 11.5 mph 27.6 mph N/A   Clear
2:55 PM 46.4 °F 39.8 °F 37.4 °F 71% 30.19 in 10.0 mi WSW 16.1 mph 21.9 mph N/A   Clear
3:15 PM 46.4 °F 41.1 °F 37.4 °F 71% 30.18 in 10.0 mi West 11.5 mph 25.3 mph N/A   Clear
3:35 PM 46.4 °F 41.1 °F 37.4 °F 71% 30.20 in 10.0 mi West 11.5 mph 25.3 mph N/A   Partly Cloudy
3:55 PM 46.4 °F 40.4 °F 37.4 °F 71% 30.20 in 10.0 mi West 13.8 mph 19.6 mph N/A   Partly Cloudy
4:15 PM 46.4 °F 40.4 °F 37.4 °F 71% 30.21 in 10.0 mi WSW 13.8 mph 21.9 mph N/A   Scattered Clouds
4:35 PM 46.4 °F 39.5 °F 37.4 °F 71% 30.21 in 10.0 mi WSW 17.3 mph 25.3 mph N/A   Mostly Cloudy
4:55 PM 46.4 °F 40.7 °F 37.4 °F 71% 30.22 in 10.0 mi West 12.7 mph 19.6 mph N/A   Mostly Cloudy
5:15 PM 44.6 °F 38.1 °F 35.6 °F 71% 30.21 in 10.0 mi SW 13.8 mph 23.0 mph N/A   Mostly Cloudy
5:35 PM 44.6 °F 38.8 °F 37.4 °F 76% 30.22 in 10.0 mi SW 11.5 mph 24.2 mph N/A   Scattered Clouds
5:55 PM 42.8 °F 36.6 °F 37.4 °F 81% 30.24 in 10.0 mi WSW 11.5 mph 17.3 mph N/A   Mostly Cloudy
6:15 PM 42.8 °F 37.5 °F 37.4 °F 81% 30.23 in 10.0 mi SW 9.2 mph - N/A   Scattered Clouds
6:35 PM 42.8 °F 37.0 °F 37.4 °F 81% 30.24 in 10.0 mi SW 10.4 mph - N/A   Partly Cloudy
6:55 PM 42.8 °F 38.0 °F 37.4 °F 81% 30.24 in 10.0 mi SW 8.1 mph - N/A   Partly Cloudy
7:15 PM 41.0 °F 36.4 °F 37.4 °F 87% 30.25 in 10.0 mi SW 6.9 mph 16.1 mph N/A   Partly Cloudy
7:35 PM 42.8 °F 38.0 °F 37.4 °F 81% 30.25 in 10.0 mi SW 8.1 mph - N/A   Scattered Clouds
7:55 PM 42.8 °F 38.6 °F 37.4 °F 81% 30.26 in 10.0 mi SW 6.9 mph - N/A   Scattered Clouds
8:15 PM 41.0 °F 37.1 °F 37.4 °F 87% 30.27 in 10.0 mi SW 5.8 mph - N/A   Scattered Clouds
8:35 PM 39.2 °F 33.6 °F 37.4 °F 93% 30.27 in 10.0 mi SW 8.1 mph - N/A   Partly Cloudy
8:55 PM 39.2 °F 34.2 °F 35.6 °F 87% 30.28 in 10.0 mi SW 6.9 mph - N/A   Clear
9:15 PM 39.2 °F 35.9 °F 35.6 °F 87% 30.29 in 10.0 mi SSW 4.6 mph - N/A   Clear
9:35 PM 39.2 °F 34.2 °F 35.6 °F 87% 30.29 in 10.0 mi SW 6.9 mph - N/A   Clear
9:55 PM 39.2 °F 34.2 °F 35.6 °F 87% 30.30 in 10.0 mi SW 6.9 mph - N/A   Clear
10:15 PM 39.2 °F 35.0 °F 35.6 °F 87% 30.31 in 10.0 mi SSW 5.8 mph - N/A   Clear
10:35 PM 39.2 °F 35.0 °F 35.6 °F 87% 30.32 in 10.0 mi SSW 5.8 mph - N/A   Clear
10:55 PM 39.2 °F 35.0 °F 35.6 °F 87% 30.32 in 10.0 mi South 5.8 mph - N/A   Clear
11:15 PM 39.2 °F 34.2 °F 35.6 °F 87% 30.32 in 10.0 mi SSW 6.9 mph - N/A   Clear
11:35 PM 39.2 °F 35.0 °F 35.6 °F 87% 30.33 in 10.0 mi South 5.8 mph - N/A   Clear
11:55 PM 39.2 °F 35.0 °F 35.6 °F 87% 30.34 in 10.0 mi SSW 5.8 mph - N/A   Partly Cloudy